Time;durP1;ratioP1;P1;durP2;ratioP2;P2;SDS_P1;SDS_P2;PMS_P1;PMS_P2;Temp;Humidity;BMP_temperature;BMP_pressure;BME280_temperature;BME280_humidity;BME280_pressure;Samples;Min_cycle;Max_cycle;Signal;HPM_P1;HPM_P2
2022/04/20 00:00:51;;;;;;;2.67;1.40;;;;;;;;;;7395612;19;20019;-82
2022/04/20 00:03:16;;;;;;;2.63;1.42;;;;;;;;;;7395974;19;20022;-82
2022/04/20 00:05:41;;;;;;;1.15;1.05;;;;;;;;;;7401979;19;20022;-82
2022/04/20 00:08:07;;;;;;;1.17;1.02;;;;;;;;;;7419225;19;20013;-82
2022/04/20 00:10:32;;;;;;;1.33;1.10;;;;;;;;;;7423363;19;20017;-82
2022/04/20 00:12:58;;;;;;;1.30;1.13;;;;;;;;;;7424808;19;20007;-81
2022/04/20 00:15:24;;;;;;;1.40;1.20;;;;;;;;;;7422229;19;20006;-82
2022/04/20 00:17:50;;;;;;;1.60;1.15;;;;;;;;;;7405337;19;20007;-82
2022/04/20 00:20:15;;;;;;;1.27;1.00;;;;;;;;;;7396608;19;20006;-83
2022/04/20 00:22:41;;;;;;;1.45;1.15;;;;;;;;;;7393459;19;20011;-82
2022/04/20 00:25:06;;;;;;;1.50;1.40;;;;;;;;;;7393873;19;20003;-82
2022/04/20 00:27:34;;;;;;;1.25;0.93;;;;;;;;;;7394630;19;20021;-83
2022/04/20 00:29:59;;;;;;;1.42;1.13;;;;;;;;;;7394411;19;20007;-82
2022/04/20 00:32:24;;;;;;;1.08;1.02;;;;;;;;;;7395427;19;20003;-82
2022/04/20 00:34:50;;;;;;;1.13;0.95;;;;;;;;;;7393495;19;20010;-82
2022/04/20 00:37:15;;;;;;;2.72;1.42;;;;;;;;;;7395186;19;20053;-82
2022/04/20 00:39:40;;;;;;;1.20;1.10;;;;;;;;;;7394206;19;20115;-82
2022/04/20 00:42:06;;;;;;;1.23;1.02;;;;;;;;;;7394478;19;20014;-82
2022/04/20 00:44:31;;;;;;;1.10;1.00;;;;;;;;;;7403659;19;20054;-82
2022/04/20 00:46:57;;;;;;;1.73;1.30;;;;;;;;;;7401499;19;20010;-83
2022/04/20 00:49:24;;;;;;;2.03;1.13;;;;;;;;;;7401988;19;20581;-83
2022/04/20 00:51:57;;;;;;;1.20;1.02;;;;;;;;;;7404614;19;20014;-83
2022/04/20 00:54:22;;;;;;;2.08;1.27;;;;;;;;;;7403312;19;20035;-81
2022/04/20 00:56:48;;;;;;;1.85;1.20;;;;;;;;;;7402570;19;20094;-82
2022/04/20 00:59:17;;;;;;;2.30;1.30;;;;;;;;;;7401456;19;20006;-83
2022/04/20 01:01:42;;;;;;;1.25;1.08;;;;;;;;;;7400635;19;20029;-82
2022/04/20 01:04:07;;;;;;;0.75;0.75;;;;;;;;;;7402533;19;20394;-82
2022/04/20 01:06:33;;;;;;;0.80;0.80;;;;;;;;;;7401669;19;20010;-83
2022/04/20 01:09:00;;;;;;;1.05;0.75;;;;;;;;;;7400816;19;20017;-83
2022/04/20 01:11:26;;;;;;;1.60;0.90;;;;;;;;;;7402596;19;20049;-84
2022/04/20 01:13:51;;;;;;;2.58;1.10;;;;;;;;;;7402119;19;20370;-83
2022/04/20 01:16:16;;;;;;;2.08;1.27;;;;;;;;;;7400668;19;20170;-83
2022/04/20 01:18:43;;;;;;;1.25;0.80;;;;;;;;;;7398965;19;20010;-83
2022/04/20 01:21:10;;;;;;;3.00;1.27;;;;;;;;;;7403683;19;20066;-83
2022/04/20 01:23:36;;;;;;;2.17;1.50;;;;;;;;;;7400999;19;20014;-83
2022/04/20 01:26:05;;;;;;;2.75;1.50;;;;;;;;;;7402113;19;20014;-84
2022/04/20 01:28:30;;;;;;;1.45;1.17;;;;;;;;;;7396208;19;20304;-83
2022/04/20 01:30:55;;;;;;;1.38;1.02;;;;;;;;;;7401758;19;20009;-83
2022/04/20 01:33:21;;;;;;;1.27;1.10;;;;;;;;;;7399379;19;20347;-83
2022/04/20 01:35:47;;;;;;;1.75;1.10;;;;;;;;;;7401160;19;20006;-83
2022/04/20 01:38:12;;;;;;;0.93;0.88;;;;;;;;;;7398965;19;20010;-83
2022/04/20 01:40:38;;;;;;;1.38;1.05;;;;;;;;;;7403519;19;20007;-83
2022/04/20 01:43:03;;;;;;;1.67;1.23;;;;;;;;;;7401336;19;20010;-83
2022/04/20 01:45:28;;;;;;;1.55;1.02;;;;;;;;;;7403511;19;20111;-83
2022/04/20 01:47:54;;;;;;;1.23;1.05;;;;;;;;;;7399448;19;20048;-83
2022/04/20 01:50:19;;;;;;;1.17;0.95;;;;;;;;;;7401786;19;20006;-83
2022/04/20 01:52:47;;;;;;;2.58;0.98;;;;;;;;;;7400182;19;20018;-83
2022/04/20 01:55:13;;;;;;;1.95;1.20;;;;;;;;;;7402536;19;20006;-81
2022/04/20 01:57:38;;;;;;;1.63;1.00;;;;;;;;;;7400480;19;20022;-83
2022/04/20 02:00:04;;;;;;;1.52;1.25;;;;;;;;;;7401362;19;20002;-84
2022/04/20 02:02:36;;;;;;;1.83;1.13;;;;;;;;;;7400356;19;20018;-84
2022/04/20 02:05:03;;;;;;;1.40;1.02;;;;;;;;;;7398863;19;20014;-81
2022/04/20 02:07:29;;;;;;;1.95;1.17;;;;;;;;;;7397064;19;20029;-84
2022/04/20 02:09:54;;;;;;;1.23;1.13;;;;;;;;;;7401638;19;20002;-83
2022/04/20 02:12:19;;;;;;;1.27;1.05;;;;;;;;;;7401024;19;20034;-84
2022/04/20 02:14:45;;;;;;;1.55;1.13;;;;;;;;;;7400665;19;20011;-81
2022/04/20 02:17:10;;;;;;;1.48;0.93;;;;;;;;;;7399246;19;20476;-84
2022/04/20 02:19:36;;;;;;;1.83;1.27;;;;;;;;;;7402958;19;20002;-84
2022/04/20 02:22:01;;;;;;;1.52;1.25;;;;;;;;;;7399532;19;20343;-83
2022/04/20 02:24:26;;;;;;;1.92;1.23;;;;;;;;;;7399857;19;20125;-83
2022/04/20 02:26:52;;;;;;;1.45;1.05;;;;;;;;;;7400660;19;20473;-82
2022/04/20 02:29:17;;;;;;;1.92;1.00;;;;;;;;;;7399570;19;20010;-83
2022/04/20 02:31:42;;;;;;;0.82;0.82;;;;;;;;;;7401081;19;20018;-83
2022/04/20 02:34:08;;;;;;;2.60;1.42;;;;;;;;;;7399687;19;20019;-83
2022/04/20 02:36:33;;;;;;;1.33;0.95;;;;;;;;;;7399067;19;20014;-83
2022/04/20 02:39:03;;;;;;;1.40;1.17;;;;;;;;;;7400107;19;20017;-83
2022/04/20 02:41:28;;;;;;;1.67;0.95;;;;;;;;;;7400641;19;20042;-83
2022/04/20 02:43:53;;;;;;;1.48;0.98;;;;;;;;;;7399543;19;20006;-83
2022/04/20 02:46:22;;;;;;;1.58;1.35;;;;;;;;;;7399866;19;20011;-83
2022/04/20 02:48:48;;;;;;;1.80;1.13;;;;;;;;;;7399948;19;20442;-83
2022/04/20 02:51:13;;;;;;;2.88;1.38;;;;;;;;;;7398316;19;20018;-83
2022/04/20 02:53:39;;;;;;;1.20;1.05;;;;;;;;;;7399507;19;20113;-82
2022/04/20 02:56:04;;;;;;;1.70;1.05;;;;;;;;;;7399664;19;20070;-83
2022/04/20 02:58:29;;;;;;;1.58;1.20;;;;;;;;;;7400438;19;20002;-84
2022/04/20 03:00:55;;;;;;;1.25;1.10;;;;;;;;;;7399900;19;20092;-83
2022/04/20 03:03:20;;;;;;;2.40;1.10;;;;;;;;;;7399473;19;20014;-83
2022/04/20 03:05:45;;;;;;;1.52;1.27;;;;;;;;;;7397328;19;20029;-82
2022/04/20 03:08:11;;;;;;;1.60;1.05;;;;;;;;;;7393991;19;20217;-84
2022/04/20 03:10:37;;;;;;;1.70;1.25;;;;;;;;;;7402844;19;20031;-83
2022/04/20 03:13:02;;;;;;;3.47;1.30;;;;;;;;;;7398804;19;20019;-83
2022/04/20 03:15:28;;;;;;;1.98;1.02;;;;;;;;;;7399697;19;20007;-83
2022/04/20 03:17:53;;;;;;;1.30;1.13;;;;;;;;;;7399482;19;20045;-83
2022/04/20 03:20:18;;;;;;;2.67;1.23;;;;;;;;;;7399235;19;20013;-83
2022/04/20 03:22:43;;;;;;;2.10;1.25;;;;;;;;;;7402960;19;20358;-83
2022/04/20 03:25:09;;;;;;;1.80;1.15;;;;;;;;;;7400792;19;20041;-83
2022/04/20 03:27:34;;;;;;;1.38;1.02;;;;;;;;;;7401847;19;20018;-83
2022/04/20 03:30:00;;;;;;;2.33;1.30;;;;;;;;;;7401170;19;20002;-83
2022/04/20 03:32:25;;;;;;;1.30;1.17;;;;;;;;;;7403998;19;20412;-83
2022/04/20 03:34:51;;;;;;;1.63;1.40;;;;;;;;;;7399153;19;20010;-83
2022/04/20 03:37:16;;;;;;;1.35;1.10;;;;;;;;;;7399405;19;20026;-83
2022/04/20 03:39:41;;;;;;;1.80;1.20;;;;;;;;;;7398831;19;20601;-83
2022/04/20 03:42:08;;;;;;;2.13;1.25;;;;;;;;;;7399783;19;20490;-83
2022/04/20 03:44:33;;;;;;;1.48;1.13;;;;;;;;;;7399018;19;20040;-82
2022/04/20 03:46:59;;;;;;;1.60;1.17;;;;;;;;;;7397911;19;20014;-83
2022/04/20 03:49:24;;;;;;;1.52;1.20;;;;;;;;;;7397500;19;20003;-83
2022/04/20 03:51:49;;;;;;;3.10;1.30;;;;;;;;;;7400247;19;20006;-83
2022/04/20 03:54:15;;;;;;;1.77;1.45;;;;;;;;;;7396031;19;20011;-83
2022/04/20 03:59:25;;;;;;;1.48;1.00;;;;;;;;;;7399684;19;20035;-83
2022/04/20 04:01:51;;;;;;;2.15;1.33;;;;;;;;;;7396282;19;20375;-83
2022/04/20 04:04:17;;;;;;;1.77;1.20;;;;;;;;;;7396129;19;20007;-83
2022/04/20 04:06:42;;;;;;;1.10;1.00;;;;;;;;;;7388432;19;20018;-84
2022/04/20 04:09:07;;;;;;;1.65;1.00;;;;;;;;;;7390329;19;20572;-83
2022/04/20 04:11:33;;;;;;;1.52;1.30;;;;;;;;;;7393632;19;20021;-83
2022/04/20 04:13:58;;;;;;;1.63;1.20;;;;;;;;;;7398307;19;20032;-83
2022/04/20 04:16:24;;;;;;;2.03;1.40;;;;;;;;;;7395903;19;20351;-83
2022/04/20 04:21:54;;;;;;;1.77;1.30;;;;;;;;;;7390944;19;20040;-82
2022/04/20 04:27:41;;;;;;;2.08;1.20;;;;;;;;;;7403789;19;20001;-85
2022/04/20 04:30:07;;;;;;;2.42;1.58;;;;;;;;;;7399378;19;20007;-83
2022/04/20 04:32:33;;;;;;;2.05;1.40;;;;;;;;;;7398720;19;20186;-84
2022/04/20 04:35:42;;;;;;;2.55;1.50;;;;;;;;;;7397909;19;20035;-85
2022/04/20 04:38:08;;;;;;;1.90;1.40;;;;;;;;;;7389255;19;20035;-83
2022/04/20 04:40:33;;;;;;;1.73;1.20;;;;;;;;;;7392911;19;20384;-82
2022/04/20 04:42:59;;;;;;;1.88;1.45;;;;;;;;;;7390667;19;20039;-82
2022/04/20 04:50:52;;;;;;;1.95;1.30;;;;;;;;;;7393919;19;20026;-81
2022/04/20 04:53:17;;;;;;;2.22;1.55;;;;;;;;;;7394991;19;19998;-82
2022/04/20 04:55:42;;;;;;;1.90;1.45;;;;;;;;;;7394169;19;20015;-81
2022/04/20 04:58:08;;;;;;;1.42;1.17;;;;;;;;;;7392829;19;20007;-82
2022/04/20 05:00:33;;;;;;;2.05;1.42;;;;;;;;;;7389366;19;20080;-83
2022/04/20 05:02:58;;;;;;;1.90;1.40;;;;;;;;;;7392457;19;20007;-82
2022/04/20 05:05:23;;;;;;;3.72;1.40;;;;;;;;;;7394728;19;20031;-81
2022/04/20 05:07:54;;;;;;;2.10;1.40;;;;;;;;;;7388169;19;20003;-81
2022/04/20 05:10:20;;;;;;;1.75;1.52;;;;;;;;;;7390058;19;20014;-83
2022/04/20 05:12:45;;;;;;;2.40;1.27;;;;;;;;;;7387137;19;20540;-83
2022/04/20 05:15:11;;;;;;;1.95;1.30;;;;;;;;;;7389695;19;20011;-83
2022/04/20 05:17:36;;;;;;;2.60;1.77;;;;;;;;;;7388614;19;20070;-83
2022/04/20 05:20:01;;;;;;;2.45;1.35;;;;;;;;;;7387802;19;20031;-81
2022/04/20 05:22:27;;;;;;;2.10;1.83;;;;;;;;;;7387868;19;20426;-84
2022/04/20 05:24:52;;;;;;;2.92;1.45;;;;;;;;;;7391636;19;20021;-82
2022/04/20 05:27:17;;;;;;;2.53;1.63;;;;;;;;;;7388800;19;20432;-82
2022/04/20 05:29:43;;;;;;;2.78;1.42;;;;;;;;;;7394235;19;20055;-83
2022/04/20 05:32:11;;;;;;;1.95;1.50;;;;;;;;;;7401136;19;20473;-82
2022/04/20 05:34:41;;;;;;;1.92;1.63;;;;;;;;;;7401571;19;20003;-84
2022/04/20 05:42:39;;;;;;;9.15;1.42;;;;;;;;;;7404997;19;20010;-84
2022/04/20 05:45:05;;;;;;;1.95;1.38;;;;;;;;;;7402835;19;20764;-85
2022/04/20 05:47:33;;;;;;;2.80;1.95;;;;;;;;;;7403973;19;20507;-83
2022/04/20 05:50:02;;;;;;;2.47;1.70;;;;;;;;;;7400132;19;20476;-84
2022/04/20 05:52:28;;;;;;;2.40;1.77;;;;;;;;;;7401122;19;20018;-83
2022/04/20 05:54:55;;;;;;;1.90;1.60;;;;;;;;;;7400207;19;20861;-83
2022/04/20 05:57:21;;;;;;;2.42;1.58;;;;;;;;;;7399448;19;20559;-83
2022/04/20 05:59:49;;;;;;;2.75;2.15;;;;;;;;;;7396790;19;20035;-82
2022/04/20 06:02:14;;;;;;;3.63;2.05;;;;;;;;;;7396193;19;20027;-84
2022/04/20 06:04:40;;;;;;;2.58;1.60;;;;;;;;;;7398032;19;20006;-85
2022/04/20 06:07:06;;;;;;;2.78;1.85;;;;;;;;;;7397468;19;20027;-84
2022/04/20 06:09:31;;;;;;;2.92;1.88;;;;;;;;;;7395855;19;20017;-82
2022/04/20 06:11:56;;;;;;;2.80;1.70;;;;;;;;;;7397720;19;20014;-83
2022/04/20 06:14:22;;;;;;;2.72;1.92;;;;;;;;;;7394156;19;19998;-81
2022/04/20 06:16:48;;;;;;;3.50;2.38;;;;;;;;;;7399784;19;20014;-81
2022/04/20 06:19:13;;;;;;;3.03;1.80;;;;;;;;;;7396899;19;20002;-82
2022/04/20 06:21:39;;;;;;;2.60;1.92;;;;;;;;;;7399886;19;20070;-82
2022/04/20 06:24:04;;;;;;;5.80;2.38;;;;;;;;;;7397358;19;20006;-82
2022/04/20 06:26:30;;;;;;;3.72;2.00;;;;;;;;;;7397141;19;20053;-83
2022/04/20 06:28:55;;;;;;;3.40;1.98;;;;;;;;;;7397086;19;20010;-82
2022/04/20 06:31:20;;;;;;;3.17;2.15;;;;;;;;;;7399165;19;20044;-82
2022/04/20 06:33:46;;;;;;;3.95;2.30;;;;;;;;;;7398379;19;20014;-80
2022/04/20 06:36:11;;;;;;;2.60;1.90;;;;;;;;;;7396744;19;20015;-82
2022/04/20 06:38:36;;;;;;;2.92;2.20;;;;;;;;;;7396279;19;20011;-82
2022/04/20 06:41:01;;;;;;;2.78;2.08;;;;;;;;;;7398341;19;20090;-81
2022/04/20 06:43:27;;;;;;;3.10;2.03;;;;;;;;;;7398431;19;20006;-81
2022/04/20 06:45:52;;;;;;;3.58;2.38;;;;;;;;;;7399873;19;20569;-81
2022/04/20 06:48:17;;;;;;;2.90;2.15;;;;;;;;;;7390932;19;20013;-83
2022/04/20 06:50:43;;;;;;;3.45;2.22;;;;;;;;;;7396461;19;20845;-83
2022/04/20 06:58:53;;;;;;;2.80;2.15;;;;;;;;;;7404955;19;20104;-83
2022/04/20 07:01:38;;;;;;;5.45;2.95;;;;;;;;;;7401341;19;20010;-84
2022/04/20 07:04:10;;;;;;;4.28;2.08;;;;;;;;;;7408294;19;20025;-82
2022/04/20 07:06:40;;;;;;;3.30;2.35;;;;;;;;;;7420612;19;20003;-83
2022/04/20 07:09:05;;;;;;;4.20;2.53;;;;;;;;;;7421332;19;20018;-82
2022/04/20 07:15:13;;;;;;;2.80;2.33;;;;;;;;;;7422565;19;20076;-83
2022/04/20 07:17:39;;;;;;;3.50;2.47;;;;;;;;;;7398517;19;20010;-83
2022/04/20 07:20:13;;;;;;;4.13;2.65;;;;;;;;;;7396699;19;20006;-84
2022/04/20 07:22:59;;;;;;;3.80;2.72;;;;;;;;;;7402058;19;20030;-82
2022/04/20 07:25:29;;;;;;;6.22;2.95;;;;;;;;;;7399708;19;20042;-84
2022/04/20 07:28:13;;;;;;;5.47;2.83;;;;;;;;;;7398372;19;20032;-84
2022/04/20 07:30:58;;;;;;;3.85;2.50;;;;;;;;;;7400078;19;20007;-83
2022/04/20 07:33:25;;;;;;;;;;;;;;;;;;7401141;19;20019;-82
2022/04/20 07:36:18;;;;;;;3.53;2.28;;;;;;;;;;7403598;19;20284;-84
2022/04/20 07:38:46;;;;;;;2.80;2.28;;;;;;;;;;7402467;19;20014;-82
2022/04/20 07:41:11;;;;;;;3.33;2.28;;;;;;;;;;7396071;19;20042;-82
2022/04/20 07:43:37;;;;;;;4.78;3.13;;;;;;;;;;7397948;19;20025;-82
2022/04/20 07:46:02;;;;;;;4.50;2.92;;;;;;;;;;7395665;19;20007;-83
2022/04/20 07:48:27;;;;;;;5.68;2.58;;;;;;;;;;7398042;19;20013;-82
2022/04/20 07:50:53;;;;;;;4.10;2.75;;;;;;;;;;7405621;19;20329;-84
2022/04/20 07:53:18;;;;;;;4.13;2.75;;;;;;;;;;7397866;19;20007;-83
2022/04/20 07:55:46;;;;;;;4.20;2.97;;;;;;;;;;7398043;19;20013;-83
2022/04/20 08:02:21;;;;;;;3.95;2.92;;;;;;;;;;7400142;19;20277;-83
2022/04/20 08:04:46;;;;;;;4.72;2.90;;;;;;;;;;7393092;19;20007;-83
2022/04/20 08:07:11;;;;;;;3.95;3.00;;;;;;;;;;7393953;19;20021;-84
2022/04/20 08:09:42;;;;;;;3.80;2.97;;;;;;;;;;7390215;19;20035;-85
2022/04/20 08:12:14;;;;;;;3.42;2.67;;;;;;;;;;7390038;19;20026;-86
2022/04/20 08:14:41;;;;;;;3.05;2.35;;;;;;;;;;7392364;19;20435;-83
2022/04/20 08:17:06;;;;;;;4.80;2.72;;;;;;;;;;7394089;19;20343;-83
2022/04/20 08:19:32;;;;;;;5.53;2.88;;;;;;;;;;7393935;19;20009;-84
2022/04/20 08:21:58;;;;;;;4.00;3.00;;;;;;;;;;7391677;19;20003;-84
2022/04/20 08:24:23;;;;;;;6.22;3.40;;;;;;;;;;7391133;19;20027;-84
2022/04/20 08:26:48;;;;;;;4.63;3.03;;;;;;;;;;7392273;19;20019;-83
2022/04/20 08:29:15;;;;;;;5.55;3.50;;;;;;;;;;7388079;19;20015;-83
2022/04/20 08:31:40;;;;;;;3.47;2.67;;;;;;;;;;7392424;19;20470;-83
2022/04/20 08:34:05;;;;;;;2.50;2.30;;;;;;;;;;7391191;19;20070;-84
2022/04/20 08:36:30;;;;;;;3.25;2.70;;;;;;;;;;7389943;19;20006;-84
2022/04/20 08:38:56;;;;;;;3.08;2.33;;;;;;;;;;7389560;19;20019;-85
2022/04/20 08:41:22;;;;;;;3.45;2.47;;;;;;;;;;7393580;19;20518;-83
2022/04/20 08:43:47;;;;;;;2.95;2.60;;;;;;;;;;7392736;19;20050;-85
2022/04/20 08:46:16;;;;;;;4.78;2.63;;;;;;;;;;7392251;19;20506;-84
2022/04/20 08:48:41;;;;;;;3.97;2.75;;;;;;;;;;7387195;19;20380;-82
2022/04/20 08:51:07;;;;;;;4.18;2.90;;;;;;;;;;7394089;19;20003;-85
2022/04/20 08:53:33;;;;;;;4.85;2.75;;;;;;;;;;7392758;19;20059;-85
2022/04/20 08:58:49;;;;;;;4.32;2.45;;;;;;;;;;7392874;19;20619;-83
2022/04/20 09:01:16;;;;;;;3.20;2.53;;;;;;;;;;7390664;19;20026;-84
2022/04/20 09:03:43;;;;;;;3.63;2.35;;;;;;;;;;7392743;19;20031;-84
2022/04/20 09:06:09;;;;;;;4.53;2.90;;;;;;;;;;7398544;19;20018;-84
2022/04/20 09:08:36;;;;;;;5.32;2.67;;;;;;;;;;7395265;19;20123;-85
2022/04/20 09:11:01;;;;;;;4.55;2.90;;;;;;;;;;7402423;19;20010;-83
2022/04/20 09:13:41;;;;;;;3.92;2.50;;;;;;;;;;7398773;19;20035;-83
2022/04/20 09:16:12;;;;;;;3.30;2.28;;;;;;;;;;7397494;19;20033;-84
2022/04/20 09:18:40;;;;;;;5.70;2.28;;;;;;;;;;7397829;19;20316;-84
2022/04/20 09:21:09;;;;;;;3.40;2.53;;;;;;;;;;7399651;19;20478;-83
2022/04/20 09:23:35;;;;;;;4.25;2.85;;;;;;;;;;7399731;19;20474;-82
2022/04/20 09:26:12;;;;;;;4.55;2.75;;;;;;;;;;7396299;19;19994;-84
2022/04/20 09:28:39;;;;;;;4.13;2.50;;;;;;;;;;7391996;19;20450;-84
2022/04/20 09:31:04;;;;;;;3.15;2.28;;;;;;;;;;7398640;19;20023;-83
2022/04/20 09:33:49;;;;;;;3.45;2.35;;;;;;;;;;7397398;19;20345;-86
2022/04/20 09:40:29;;;;;;;5.20;2.58;;;;;;;;;;7402215;19;20021;-82
2022/04/20 09:44:02;;;;;;;2.90;2.40;;;;;;;;;;7391477;19;20611;-85
2022/04/20 09:53:32;;;;;;;3.85;2.75;;;;;;;;;;7395655;19;20358;-80
2022/04/20 09:56:38;;;;;;;2.92;2.55;;;;;;;;;;7395967;19;20002;-82
2022/04/20 10:00:20;;;;;;;5.93;2.55;;;;;;;;;;7396188;19;20006;-82
2022/04/20 10:03:27;;;;;;;2.42;2.13;;;;;;;;;;7394109;19;19998;-82
2022/04/20 10:09:57;;;;;;;3.67;2.10;;;;;;;;;;7393881;19;20019;-82
2022/04/20 10:13:11;;;;;;;2.53;2.13;;;;;;;;;;7397423;19;20016;-82
2022/04/20 10:19:55;;;;;;;2.55;2.00;;;;;;;;;;7393126;19;20521;-82
2022/04/20 10:23:05;;;;;;;5.28;2.33;;;;;;;;;;7395136;19;20002;-82
2022/04/20 10:25:30;;;;;;;3.08;2.17;;;;;;;;;;7391227;19;20028;-81
2022/04/20 10:28:21;;;;;;;3.35;2.50;;;;;;;;;;7389076;19;20002;-82
2022/04/20 10:30:58;;;;;;;4.28;2.25;;;;;;;;;;7393777;19;20006;-81
2022/04/20 10:33:25;;;;;;;3.50;2.38;;;;;;;;;;7391551;19;20051;-82
2022/04/20 10:36:04;;;;;;;4.28;2.20;;;;;;;;;;7390380;19;20010;-82
2022/04/20 10:38:31;;;;;;;4.00;2.10;;;;;;;;;;7392724;19;20019;-81
2022/04/20 10:41:10;;;;;;;3.60;2.47;;;;;;;;;;7393599;19;20094;-82
2022/04/20 10:43:40;;;;;;;2.78;1.80;;;;;;;;;;7396402;19;20010;-82
2022/04/20 10:46:08;;;;;;;2.20;1.92;;;;;;;;;;7398377;19;20011;-82
2022/04/20 10:48:48;;;;;;;2.50;2.10;;;;;;;;;;7391295;19;20888;-82
2022/04/20 10:51:29;;;;;;;3.58;2.22;;;;;;;;;;7393202;19;20026;-81
2022/04/20 10:54:30;;;;;;;4.38;2.28;;;;;;;;;;7393429;19;20003;-81
2022/04/20 10:57:40;;;;;;;2.40;1.67;;;;;;;;;;7392267;19;20031;-82
2022/04/20 11:00:33;;;;;;;2.80;1.83;;;;;;;;;;7391532;19;20003;-82
2022/04/20 11:03:10;;;;;;;2.30;1.90;;;;;;;;;;7393382;19;20010;-82
2022/04/20 11:06:01;;;;;;;1.98;1.77;;;;;;;;;;7388179;19;20027;-82
2022/04/20 11:22:10;;;;;;;2.63;1.95;;;;;;;;;;7392240;19;20018;-84
2022/04/20 11:24:36;;;;;;;2.05;1.80;;;;;;;;;;7394962;19;20033;-83
2022/04/20 11:27:22;;;;;;;3.92;2.00;;;;;;;;;;7390056;19;20010;-83
2022/04/20 11:30:06;;;;;;;;;;;;;;;;;;7393233;19;20007;-86
2022/04/20 11:33:32;;;;;;;3.70;1.92;;;;;;;;;;7393373;19;20152;-82
2022/04/20 11:37:00;;;;;;;3.25;2.15;;;;;;;;;;7387398;19;20012;-83
2022/04/20 11:53:45;;;;;;;2.22;2.03;;;;;;;;;;7388663;19;20017;-83
2022/04/20 11:56:52;;;;;;;2.20;1.83;;;;;;;;;;7390744;19;20014;-81
2022/04/20 12:00:46;;;;;;;1.90;1.58;;;;;;;;;;7390356;19;21211;-81
2022/04/20 12:10:32;;;;;;;1.85;1.65;;;;;;;;;;7385113;19;20019;-81
2022/04/20 12:13:02;;;;;;;2.40;2.00;;;;;;;;;;7385191;19;20083;-82
2022/04/20 12:15:28;;;;;;;2.35;1.90;;;;;;;;;;7388534;19;20011;-81
2022/04/20 12:17:53;;;;;;;2.40;1.85;;;;;;;;;;7390822;19;20019;-82
2022/04/20 12:20:18;;;;;;;3.63;2.25;;;;;;;;;;7390343;19;20011;-81
2022/04/20 12:22:44;;;;;;;2.58;1.83;;;;;;;;;;7388529;19;20058;-83
2022/04/20 12:25:11;;;;;;;1.92;1.55;;;;;;;;;;7389387;19;20014;-82
2022/04/20 12:27:51;;;;;;;2.78;1.80;;;;;;;;;;7391101;19;20019;-81
2022/04/20 12:30:34;;;;;;;2.17;1.98;;;;;;;;;;7391699;19;20026;-82
2022/04/20 12:33:04;;;;;;;3.28;1.98;;;;;;;;;;7391358;19;20010;-82
2022/04/20 12:35:30;;;;;;;2.33;1.80;;;;;;;;;;7392939;19;20014;-81
2022/04/20 12:37:55;;;;;;;2.30;1.77;;;;;;;;;;7390878;19;19998;-83
2022/04/20 12:40:24;;;;;;;2.25;1.80;;;;;;;;;;7399221;19;20010;-83
2022/04/20 12:43:07;;;;;;;2.83;2.25;;;;;;;;;;7398103;19;20002;-83
2022/04/20 12:45:33;;;;;;;4.35;2.47;;;;;;;;;;7397971;19;20023;-82
2022/04/20 12:48:04;;;;;;;1.98;1.73;;;;;;;;;;7395605;19;20006;-83
2022/04/20 12:50:37;;;;;;;1.95;1.75;;;;;;;;;;7396157;19;20014;-80
2022/04/20 12:53:03;;;;;;;2.20;1.80;;;;;;;;;;7398108;19;20446;-79
2022/04/20 12:55:40;;;;;;;4.85;2.75;;;;;;;;;;7402289;19;20003;-80
2022/04/20 13:03:44;;;;;;;3.75;2.50;;;;;;;;;;7398299;19;20058;-83
2022/04/20 13:06:11;;;;;;;3.42;2.50;;;;;;;;;;7394823;19;20010;-83
2022/04/20 13:08:41;;;;;;;4.18;2.67;;;;;;;;;;7395361;19;20015;-82
2022/04/20 13:11:10;;;;;;;2.00;1.80;;;;;;;;;;7399056;19;19999;-82
2022/04/20 13:13:36;;;;;;;4.85;2.30;;;;;;;;;;7400195;19;20010;-82
2022/04/20 13:16:01;;;;;;;3.35;2.15;;;;;;;;;;7399426;19;20018;-81
2022/04/20 13:18:26;;;;;;;5.32;1.90;;;;;;;;;;7389923;19;20034;-82
2022/04/20 13:20:52;;;;;;;5.00;1.92;;;;;;;;;;7395517;19;20415;-81
2022/04/20 13:23:18;;;;;;;2.42;2.05;;;;;;;;;;7399048;19;20019;-82
2022/04/20 13:28:28;;;;;;;1.88;1.77;;;;;;;;;;7397520;19;20029;-82
2022/04/20 13:30:53;;;;;;;3.33;1.98;;;;;;;;;;7399837;19;19999;-82
2022/04/20 13:33:19;;;;;;;4.68;2.13;;;;;;;;;;7396048;19;20114;-82
2022/04/20 13:35:47;;;;;;;5.57;1.80;;;;;;;;;;7399381;19;20006;-82
2022/04/20 13:38:12;;;;;;;2.42;1.90;;;;;;;;;;7393233;19;20026;-81
2022/04/20 13:40:39;;;;;;;2.83;2.00;;;;;;;;;;7400086;19;20454;-81
2022/04/20 13:43:05;;;;;;;2.70;1.60;;;;;;;;;;7399348;19;20014;-81
2022/04/20 13:45:31;;;;;;;3.40;2.05;;;;;;;;;;7401342;19;20082;-82
2022/04/20 13:47:56;;;;;;;2.03;1.83;;;;;;;;;;7399271;19;20445;-82
2022/04/20 13:50:21;;;;;;;2.72;1.80;;;;;;;;;;7400257;19;20028;-82
2022/04/20 13:52:47;;;;;;;2.05;1.67;;;;;;;;;;7401900;19;20023;-82
2022/04/20 13:55:12;;;;;;;1.98;1.75;;;;;;;;;;7400917;19;20013;-82
2022/04/20 13:57:38;;;;;;;2.92;1.92;;;;;;;;;;7404240;19;20296;-82
2022/04/20 14:00:06;;;;;;;2.15;1.75;;;;;;;;;;7407274;19;20010;-82
2022/04/20 14:02:32;;;;;;;1.95;1.70;;;;;;;;;;7409019;19;20006;-82
2022/04/20 14:04:57;;;;;;;5.18;2.10;;;;;;;;;;7424568;19;20027;-81
2022/04/20 14:07:23;;;;;;;3.97;1.90;;;;;;;;;;7424423;19;20009;-81
2022/04/20 14:09:48;;;;;;;2.00;1.73;;;;;;;;;;7421061;19;20009;-81
2022/04/20 14:12:15;;;;;;;2.58;1.95;;;;;;;;;;7421304;19;20039;-81
2022/04/20 14:14:41;;;;;;;2.95;1.90;;;;;;;;;;7399695;19;20015;-81
2022/04/20 14:17:07;;;;;;;1.88;1.67;;;;;;;;;;7392636;19;19994;-81
2022/04/20 14:19:32;;;;;;;3.97;1.88;;;;;;;;;;7394121;19;20002;-81
2022/04/20 14:21:58;;;;;;;2.88;1.95;;;;;;;;;;7397599;19;20343;-81
2022/04/20 14:24:23;;;;;;;2.80;1.83;;;;;;;;;;7395798;19;20069;-81
2022/04/20 14:32:20;;;;;;;3.28;1.92;;;;;;;;;;7394963;19;20045;-81
2022/04/20 14:34:48;;;;;;;1.85;1.73;;;;;;;;;;7396761;19;20145;-81
2022/04/20 14:37:14;;;;;;;1.83;1.50;;;;;;;;;;7394661;19;20006;-81
2022/04/20 14:39:40;;;;;;;2.40;1.90;;;;;;;;;;7396690;19;20023;-81
2022/04/20 14:42:07;;;;;;;2.28;1.75;;;;;;;;;;7396492;19;20003;-81
2022/04/20 14:44:36;;;;;;;2.60;1.60;;;;;;;;;;7396757;19;20037;-82
2022/04/20 14:47:08;;;;;;;3.20;1.60;;;;;;;;;;7396204;19;20006;-81
2022/04/20 14:49:35;;;;;;;1.95;1.70;;;;;;;;;;7394970;19;20282;-81
2022/04/20 14:52:01;;;;;;;1.83;1.73;;;;;;;;;;7396445;19;19999;-82
2022/04/20 14:54:26;;;;;;;2.30;1.98;;;;;;;;;;7399898;19;20030;-82
2022/04/20 14:56:51;;;;;;;2.92;1.70;;;;;;;;;;7400353;19;20002;-82
2022/04/20 14:59:17;;;;;;;2.15;1.83;;;;;;;;;;7399538;19;20022;-83
2022/04/20 15:01:44;;;;;;;2.63;1.35;;;;;;;;;;7397173;19;20114;-83
2022/04/20 15:04:09;;;;;;;1.85;1.70;;;;;;;;;;7395055;19;20015;-83
2022/04/20 15:06:35;;;;;;;2.60;1.30;;;;;;;;;;7395499;19;20317;-83
2022/04/20 15:09:00;;;;;;;2.03;1.60;;;;;;;;;;7394150;19;20034;-84
2022/04/20 15:11:25;;;;;;;2.13;1.60;;;;;;;;;;7398524;19;20010;-83
2022/04/20 15:13:50;;;;;;;1.65;1.55;;;;;;;;;;7397274;19;20471;-83
2022/04/20 15:16:19;;;;;;;2.03;1.65;;;;;;;;;;7390270;19;20018;-82
2022/04/20 15:18:44;;;;;;;1.52;1.42;;;;;;;;;;7392739;19;20058;-82
2022/04/20 15:21:10;;;;;;;3.05;1.60;;;;;;;;;;7397886;19;20359;-83
2022/04/20 15:23:37;;;;;;;3.33;1.60;;;;;;;;;;7401388;19;20014;-82
2022/04/20 15:26:03;;;;;;;2.10;1.50;;;;;;;;;;7401181;19;20010;-82
2022/04/20 15:28:29;;;;;;;2.40;1.80;;;;;;;;;;7398157;19;20017;-83
2022/04/20 15:30:56;;;;;;;2.33;1.40;;;;;;;;;;7400248;19;20492;-83
2022/04/20 15:33:21;;;;;;;2.95;1.92;;;;;;;;;;7397344;19;20485;-82
2022/04/20 15:35:47;;;;;;;5.63;2.97;;;;;;;;;;7398775;19;20010;-82
2022/04/20 15:38:12;;;;;;;1.90;1.70;;;;;;;;;;7393920;19;20565;-83
2022/04/20 15:40:40;;;;;;;13.25;1.55;;;;;;;;;;7395108;19;20020;-83
2022/04/20 15:43:05;;;;;;;2.25;1.83;;;;;;;;;;7396511;19;20007;-82
2022/04/20 15:45:31;;;;;;;2.05;1.58;;;;;;;;;;7395566;19;20634;-85
2022/04/20 15:47:57;;;;;;;2.22;1.40;;;;;;;;;;7394285;19;20014;-84
2022/04/20 15:50:22;;;;;;;1.92;1.40;;;;;;;;;;7395393;19;20314;-82
2022/04/20 15:52:48;;;;;;;1.98;1.65;;;;;;;;;;7397348;19;20182;-83
2022/04/20 16:00:44;;;;;;;6.68;1.70;;;;;;;;;;7396313;19;20022;-83
2022/04/20 16:03:09;;;;;;;5.50;1.80;;;;;;;;;;7395912;19;20014;-83
2022/04/20 16:05:35;;;;;;;1.85;1.52;;;;;;;;;;7399896;19;20018;-82
2022/04/20 16:08:00;;;;;;;4.43;1.55;;;;;;;;;;7394127;19;20118;-83
2022/04/20 16:10:25;;;;;;;3.47;1.60;;;;;;;;;;7399654;19;20007;-83
2022/04/20 16:12:51;;;;;;;2.38;1.67;;;;;;;;;;7399432;19;20026;-82
2022/04/20 16:15:16;;;;;;;1.95;1.60;;;;;;;;;;7397855;19;20338;-82
2022/04/20 16:17:43;;;;;;;1.80;1.60;;;;;;;;;;7394164;19;19994;-81
2022/04/20 16:20:09;;;;;;;2.95;1.63;;;;;;;;;;7398922;19;20034;-82
2022/04/20 16:22:35;;;;;;;2.95;2.22;;;;;;;;;;7396444;19;20010;-82
2022/04/20 16:25:02;;;;;;;6.10;2.42;;;;;;;;;;7403716;19;20188;-83
2022/04/20 16:27:28;;;;;;;2.30;1.67;;;;;;;;;;7401183;19;20071;-82
2022/04/20 16:29:53;;;;;;;2.80;1.45;;;;;;;;;;7391835;19;20083;-85
2022/04/20 16:32:19;;;;;;;3.80;1.95;;;;;;;;;;7399976;19;20007;-84
2022/04/20 16:34:44;;;;;;;1.90;1.70;;;;;;;;;;7399795;19;20035;-84
2022/04/20 16:37:10;;;;;;;3.67;1.80;;;;;;;;;;7399721;19;20010;-83
2022/04/20 16:39:36;;;;;;;2.88;1.48;;;;;;;;;;7390973;19;20096;-82
2022/04/20 16:42:05;;;;;;;3.83;1.38;;;;;;;;;;7390138;19;20011;-81
2022/04/20 16:44:31;;;;;;;5.38;3.38;;;;;;;;;;7382821;19;20060;-80